createdAt,value
2022-08-05T00:01:27.868Z,71.10
2022-08-05T00:03:56.904Z,71.30
2022-08-05T00:06:29.344Z,71.10
2022-08-05T00:09:00.457Z,71.60
2022-08-05T00:11:34.525Z,70.80
2022-08-05T00:14:13.061Z,71.40
2022-08-05T00:16:52.622Z,71.90
2022-08-05T00:19:22.137Z,72.40
2022-08-05T00:21:49.300Z,72.30
2022-08-05T00:24:19.179Z,72.70
2022-08-05T00:26:52.969Z,73.00
2022-08-05T00:29:22.863Z,73.40
2022-08-05T00:32:12.154Z,73.30
2022-08-05T00:34:56.797Z,72.40
2022-08-05T00:37:50.510Z,72.20
2022-08-05T00:40:17.904Z,71.80
2022-08-05T00:42:55.262Z,71.20
2022-08-05T00:45:28.188Z,70.70
2022-08-05T00:48:07.381Z,70.80
2022-08-05T00:50:34.515Z,70.60
2022-08-05T00:53:02.646Z,70.70
2022-08-05T00:55:42.192Z,70.50
2022-08-05T00:58:16.948Z,71.60
2022-08-05T01:00:47.707Z,70.80
2022-08-05T01:03:22.538Z,71.30
2022-08-05T01:05:51.254Z,71.90
2022-08-05T01:08:39.861Z,71.90
2022-08-05T01:11:36.745Z,71.80
2022-08-05T01:14:45.031Z,72.40
2022-08-05T01:17:25.500Z,71.80
2022-08-05T01:20:10.131Z,71.70
2022-08-05T01:23:14.518Z,71.50
2022-08-05T01:26:07.455Z,71.40
2022-08-05T01:28:36.490Z,71.20
2022-08-05T01:31:27.727Z,71.90
2022-08-05T01:34:01.502Z,71.90
2022-08-05T01:36:34.095Z,71.80
2022-08-05T01:39:01.903Z,72.00
2022-08-05T01:41:33.894Z,70.80
2022-08-05T01:44:03.249Z,70.60
2022-08-05T01:46:42.511Z,70.20
2022-08-05T01:49:24.011Z,71.00
2022-08-05T01:51:55.075Z,70.80
2022-08-05T01:54:25.720Z,71.40
2022-08-05T01:58:10.300Z,71.30
2022-08-05T01:59:47.221Z,71.20
2022-08-05T02:02:15.917Z,71.70
2022-08-05T02:04:46.188Z,71.40
2022-08-05T02:07:22.156Z,71.60
2022-08-05T02:09:50.977Z,75.00
2022-08-05T02:12:43.466Z,76.30
2022-08-05T02:15:26.353Z,77.00
2022-08-05T02:18:30.645Z,77.10
2022-08-05T02:21:02.578Z,77.90
2022-08-05T02:23:33.777Z,77.80
2022-08-05T02:26:05.056Z,77.50
2022-08-05T02:28:41.584Z,77.40
2022-08-05T02:31:16.542Z,77.20
2022-08-05T02:34:06.677Z,77.20
2022-08-05T02:36:39.191Z,77.20
2022-08-05T02:39:10.883Z,77.40
2022-08-05T02:41:57.562Z,78.40
2022-08-05T02:44:26.256Z,77.70
2022-08-05T02:46:59.850Z,77.50
2022-08-05T02:49:37.162Z,76.80
2022-08-05T02:52:07.894Z,78.40
2022-08-05T02:54:37.447Z,78.40
2022-08-05T02:58:10.072Z,78.30
2022-08-05T02:59:57.590Z,78.40
2022-08-05T03:02:31.700Z,78.70
2022-08-05T03:05:00.594Z,77.40
2022-08-05T03:08:00.938Z,75.60
2022-08-05T03:10:22.033Z,75.10
2022-08-05T03:12:53.998Z,74.70
2022-08-05T03:15:23.210Z,73.80
2022-08-05T03:17:54.162Z,73.50
2022-08-05T03:20:22.361Z,74.10
2022-08-05T03:22:50.690Z,73.40
2022-08-05T03:25:33.725Z,73.50
2022-08-05T03:28:09.151Z,73.70
2022-08-05T03:30:36.802Z,73.60
2022-08-05T03:33:07.389Z,74.00
2022-08-05T03:35:41.207Z,73.80
2022-08-05T03:38:11.109Z,74.10
2022-08-05T03:40:48.498Z,74.10
2022-08-05T03:44:09.409Z,74.60
2022-08-05T03:46:04.777Z,74.40
2022-08-05T03:48:35.693Z,74.20
2022-08-05T03:52:36.555Z,73.90
2022-08-05T03:56:06.147Z,74.20
2022-08-05T03:57:58.850Z,74.00
2022-08-05T04:00:31.247Z,74.00
2022-08-05T04:03:04.333Z,74.00
2022-08-05T04:05:34.581Z,73.00
2022-08-05T04:08:29.623Z,72.70
2022-08-05T04:10:59.584Z,72.50
2022-08-05T04:13:50.506Z,72.90
2022-08-05T04:16:14.547Z,72.50
2022-08-05T04:18:41.358Z,72.60
2022-08-05T04:21:11.291Z,72.40
2022-08-05T04:24:05.805Z,72.80
2022-08-05T04:26:26.006Z,73.10
2022-08-05T04:29:00.332Z,73.00
2022-08-05T04:31:38.506Z,73.10
2022-08-05T04:34:31.846Z,73.50
2022-08-05T04:36:52.403Z,73.30
2022-08-05T04:39:19.905Z,73.50
2022-08-05T04:41:48.170Z,73.50
2022-08-05T04:44:21.014Z,73.70
2022-08-05T04:46:51.192Z,73.20
2022-08-05T04:49:38.031Z,73.50
2022-08-05T04:52:07.770Z,73.50
2022-08-05T04:54:34.706Z,73.60
2022-08-05T04:57:01.514Z,73.80
2022-08-05T04:59:38.281Z,73.60
2022-08-05T05:02:41.095Z,74.00
2022-08-05T05:05:02.818Z,74.30
2022-08-05T05:07:32.329Z,74.30
2022-08-05T05:10:01.999Z,74.40
2022-08-05T05:12:29.733Z,74.80
2022-08-05T05:14:56.534Z,74.80
2022-08-05T05:17:55.670Z,75.00
2022-08-05T05:20:12.406Z,75.40
2022-08-05T05:22:40.696Z,75.70
2022-08-05T05:25:16.017Z,76.30
2022-08-05T05:27:48.481Z,75.80
2022-08-05T05:30:29.866Z,77.00
2022-08-05T05:33:09.351Z,76.20
2022-08-05T05:35:48.216Z,77.00
2022-08-05T05:38:27.057Z,76.20
2022-08-05T05:40:58.251Z,77.00
2022-08-05T05:43:54.431Z,76.40
2022-08-05T05:46:17.470Z,76.00
2022-08-05T05:48:48.238Z,76.20
2022-08-05T05:51:49.978Z,76.40
2022-08-05T05:54:17.542Z,76.20
2022-08-05T05:56:47.401Z,76.30
2022-08-05T05:59:14.156Z,76.50
2022-08-05T06:01:57.104Z,76.80
2022-08-05T06:04:24.856Z,77.60
2022-08-05T06:06:51.710Z,77.90
2022-08-05T06:09:25.696Z,78.20
2022-08-05T06:12:01.852Z,78.80
2022-08-05T06:14:34.771Z,78.80
2022-08-05T06:17:22.076Z,80.10
2022-08-05T06:19:56.988Z,80.70
2022-08-05T06:22:33.558Z,80.80
2022-08-05T06:25:01.591Z,80.70
2022-08-05T06:28:12.210Z,81.30
2022-08-05T06:30:35.057Z,81.20
2022-08-05T06:33:02.346Z,81.40
2022-08-05T06:36:07.489Z,81.50
2022-08-05T06:38:16.425Z,81.10
2022-08-05T06:40:44.666Z,81.30
2022-08-05T06:43:57.536Z,80.80
2022-08-05T06:46:03.932Z,80.60
2022-08-05T06:48:50.266Z,80.30
2022-08-05T06:51:29.383Z,79.90
2022-08-05T06:54:02.065Z,79.00
2022-08-05T06:56:29.827Z,78.50
2022-08-05T06:58:56.825Z,78.30
2022-08-05T07:01:31.981Z,78.00
2022-08-05T07:04:00.199Z,77.50
2022-08-05T07:06:28.542Z,76.40
2022-08-05T07:08:55.380Z,76.10
2022-08-05T07:11:25.251Z,75.90
2022-08-05T07:14:15.808Z,75.10
2022-08-05T07:18:00.931Z,74.30
2022-08-05T07:20:16.686Z,74.20
2022-08-05T07:22:28.812Z,74.00
2022-08-05T07:24:58.704Z,71.90
2022-08-05T07:27:27.735Z,72.00
2022-08-05T07:30:22.843Z,71.40
2022-08-05T07:32:55.145Z,71.40
2022-08-05T07:36:01.558Z,71.30
2022-08-05T07:38:12.253Z,71.10
2022-08-05T07:40:47.624Z,70.60
2022-08-05T07:43:22.635Z,70.10
2022-08-05T07:45:58.044Z,70.20
2022-08-05T07:49:02.195Z,69.90
2022-08-05T07:51:23.742Z,69.40
2022-08-05T07:53:59.253Z,69.00
2022-08-05T07:57:00.667Z,68.60
2022-08-05T07:59:15.638Z,68.60
2022-08-05T08:01:52.301Z,68.20
2022-08-05T08:04:37.327Z,68.00
2022-08-05T08:07:16.394Z,67.80
2022-08-05T08:09:45.318Z,67.10
2022-08-05T08:12:37.547Z,66.70
2022-08-05T08:15:03.488Z,66.20
2022-08-05T08:17:32.296Z,66.10
2022-08-05T08:20:21.832Z,65.70
2022-08-05T08:22:55.742Z,65.40
2022-08-05T08:25:27.133Z,65.90
2022-08-05T08:28:11.397Z,65.10
2022-08-05T08:30:47.473Z,65.50
2022-08-05T08:33:16.666Z,65.60
2022-08-05T08:35:53.884Z,65.70
2022-08-05T08:38:35.631Z,65.70
2022-08-05T08:41:07.322Z,63.90
2022-08-05T08:45:21.243Z,62.40
2022-08-05T08:46:27.393Z,61.30
2022-08-05T08:49:08.003Z,61.40
2022-08-05T08:52:03.248Z,60.90
2022-08-05T08:54:30.841Z,59.70
2022-08-05T08:56:59.728Z,59.90
2022-08-05T08:59:27.437Z,60.00
2022-08-05T09:01:57.383Z,59.70
2022-08-05T09:04:30.623Z,59.80
2022-08-05T09:06:58.321Z,59.40
2022-08-05T09:09:26.096Z,59.00
2022-08-05T09:12:14.434Z,58.60
2022-08-05T09:14:57.151Z,58.10
2022-08-05T09:17:40.684Z,58.50
2022-08-05T09:20:09.406Z,58.00
2022-08-05T09:23:19.778Z,57.60
2022-08-05T09:26:06.181Z,56.00
2022-08-05T09:28:35.049Z,55.40
2022-08-05T09:31:22.925Z,55.70
2022-08-05T09:34:04.581Z,55.40
2022-08-05T09:36:59.137Z,54.90
2022-08-05T09:39:39.290Z,54.50
2022-08-05T09:42:22.968Z,53.60
2022-08-05T09:44:56.461Z,53.10
2022-08-05T09:47:29.699Z,53.40
2022-08-05T09:50:13.758Z,54.00
2022-08-05T09:52:45.778Z,53.80
2022-08-05T09:55:56.534Z,54.20
2022-08-05T09:58:00.296Z,53.30
2022-08-05T10:00:29.658Z,53.00
2022-08-05T10:02:58.648Z,52.60
2022-08-05T10:05:32.746Z,52.30
2022-08-05T10:08:35.379Z,51.40
2022-08-05T10:10:54.047Z,51.70
2022-08-05T10:13:47.861Z,52.00
2022-08-05T10:16:41.744Z,52.40
2022-08-05T10:19:23.862Z,53.20
2022-08-05T10:22:09.068Z,53.80
2022-08-05T10:24:42.506Z,53.70
2022-08-05T10:27:16.592Z,53.80
2022-08-05T10:30:06.627Z,53.60
2022-08-05T10:32:52.141Z,53.60
2022-08-05T10:35:19.259Z,53.40
2022-08-05T10:37:47.551Z,53.20
2022-08-05T10:40:35.132Z,52.70
2022-08-05T10:43:35.913Z,52.00
2022-08-05T10:46:09.425Z,51.80
2022-08-05T10:48:56.679Z,52.90
2022-08-05T10:51:29.025Z,52.90
2022-08-05T10:54:28.134Z,52.90
2022-08-05T10:56:55.827Z,52.70
2022-08-05T11:00:03.451Z,52.30
2022-08-05T11:02:37.656Z,52.80
2022-08-05T11:05:09.322Z,52.50
2022-08-05T11:08:12.773Z,51.90
2022-08-05T11:10:50.402Z,51.60
2022-08-05T11:13:57.907Z,50.90
2022-08-05T11:16:47.476Z,51.90
2022-08-05T11:20:16.720Z,52.40
2022-08-05T11:22:42.284Z,59.50
2022-08-05T11:26:04.556Z,59.00
2022-08-05T11:28:17.075Z,59.50
2022-08-05T11:30:58.314Z,58.00
2022-08-05T11:33:43.858Z,58.40
2022-08-05T11:36:16.955Z,55.10
2022-08-05T11:39:01.779Z,55.00
2022-08-05T11:41:56.478Z,55.20
2022-08-05T11:44:52.801Z,54.70
2022-08-05T11:47:15.146Z,54.40
2022-08-05T11:49:50.945Z,53.00
2022-08-05T11:52:29.493Z,53.60
2022-08-05T11:54:58.492Z,53.80
2022-08-05T11:57:30.723Z,54.10
2022-08-05T12:00:31.655Z,52.30
2022-08-05T12:03:14.708Z,52.80
2022-08-05T12:05:43.512Z,53.20
2022-08-05T12:08:11.705Z,52.80
2022-08-05T12:10:46.566Z,53.60
2022-08-05T12:13:27.703Z,52.90
2022-08-05T12:16:14.985Z,52.70
2022-08-05T12:18:49.100Z,52.70
2022-08-05T12:21:31.875Z,52.40
2022-08-05T12:24:04.259Z,52.30
2022-08-05T12:26:50.274Z,52.70
2022-08-05T12:29:23.504Z,52.10
2022-08-05T12:31:56.951Z,52.50
2022-08-05T12:34:28.378Z,52.50
2022-08-05T12:37:21.500Z,52.20
2022-08-05T12:39:51.350Z,52.40
2022-08-05T12:42:20.439Z,53.00
2022-08-05T12:44:47.910Z,51.30
2022-08-05T12:47:26.333Z,52.30
2022-08-05T12:50:02.401Z,52.80
2022-08-05T12:52:38.673Z,52.30
2022-08-05T12:55:17.927Z,53.20
2022-08-05T12:58:38.592Z,53.30
2022-08-05T13:02:03.965Z,53.20
2022-08-05T13:03:32.422Z,54.70
2022-08-05T13:06:00.855Z,55.40
2022-08-05T13:08:32.758Z,55.40
2022-08-05T13:11:02.045Z,55.90
2022-08-05T13:14:04.637Z,55.20
2022-08-05T13:16:17.352Z,55.10
2022-08-05T13:18:59.648Z,55.50
2022-08-05T13:21:28.395Z,55.00
2022-08-05T13:24:06.098Z,54.30
2022-08-05T13:26:35.990Z,54.90
2022-08-05T13:29:02.984Z,55.10
2022-08-05T13:31:33.916Z,55.20
2022-08-05T13:34:22.397Z,55.00
2022-08-05T13:36:53.360Z,54.80
2022-08-05T13:39:24.412Z,54.30
2022-08-05T13:42:07.607Z,54.00
2022-08-05T13:44:45.434Z,54.50
2022-08-05T13:47:35.939Z,54.30
2022-08-05T13:50:06.498Z,53.80
2022-08-05T13:52:36.528Z,53.00
2022-08-05T13:55:07.818Z,52.90
2022-08-05T13:57:51.506Z,53.40
2022-08-05T14:00:27.314Z,53.50
2022-08-05T14:02:56.386Z,53.40
2022-08-05T14:05:48.129Z,53.00
2022-08-05T14:08:20.285Z,51.70
2022-08-05T14:10:48.403Z,51.70
2022-08-05T14:13:15.630Z,51.20
2022-08-05T14:16:08.908Z,51.70
2022-08-05T14:18:29.309Z,51.80
2022-08-05T14:20:56.016Z,52.20
2022-08-05T14:23:25.193Z,52.00
2022-08-05T14:25:58.677Z,51.70
2022-08-05T14:28:30.187Z,51.60
2022-08-05T14:30:58.214Z,51.80
2022-08-05T14:33:24.961Z,51.70
2022-08-05T14:35:54.400Z,51.80
2022-08-05T14:38:31.592Z,52.40
2022-08-05T14:41:06.692Z,52.50
2022-08-05T14:43:57.673Z,52.10
2022-08-05T14:46:28.291Z,52.60
2022-08-05T14:48:58.533Z,53.20
2022-08-05T14:51:30.641Z,53.30
2022-08-05T14:54:26.230Z,53.80
2022-08-05T14:56:46.839Z,53.50
2022-08-05T14:59:14.369Z,53.80
2022-08-05T15:01:47.858Z,54.20
2022-08-05T15:04:16.619Z,54.60
2022-08-05T15:06:49.101Z,54.00
2022-08-05T15:09:51.618Z,53.90
2022-08-05T15:12:06.907Z,54.10
2022-08-05T15:14:48.205Z,54.30
2022-08-05T15:17:45.634Z,54.70
2022-08-05T15:20:04.987Z,55.50
2022-08-05T15:22:31.707Z,55.70
2022-08-05T15:24:59.206Z,55.80
2022-08-05T15:27:26.351Z,56.00
2022-08-05T15:29:59.135Z,56.00
2022-08-05T15:32:28.993Z,55.50
2022-08-05T15:34:56.855Z,55.80
2022-08-05T15:38:08.385Z,55.80
2022-08-05T15:40:59.324Z,56.20
2022-08-05T15:43:09.272Z,56.30
2022-08-05T15:45:45.679Z,56.80
2022-08-05T15:48:14.108Z,57.00
2022-08-05T15:50:43.601Z,57.20
2022-08-05T15:53:12.499Z,57.40
2022-08-05T15:56:02.724Z,57.30
2022-08-05T15:58:29.155Z,57.30
2022-08-05T16:03:43.358Z,57.20
2022-08-05T16:06:11.415Z,57.70
2022-08-05T16:08:38.925Z,58.10
2022-08-05T16:11:08.031Z,58.20
2022-08-05T16:13:35.368Z,58.20
2022-08-05T16:16:05.581Z,58.80
2022-08-05T16:18:35.523Z,58.90
2022-08-05T16:21:19.066Z,59.10
2022-08-05T16:23:53.835Z,59.80
2022-08-05T16:26:26.425Z,59.70
2022-08-05T16:28:54.763Z,59.60
2022-08-05T16:31:22.092Z,59.60
2022-08-05T16:33:49.550Z,59.60
2022-08-05T16:36:20.360Z,59.90
2022-08-05T16:38:55.142Z,60.10
2022-08-05T16:42:14.527Z,59.90
2022-08-05T16:44:11.545Z,60.20
2022-08-05T16:46:41.052Z,60.40
2022-08-05T16:49:10.136Z,60.80
2022-08-05T16:51:50.063Z,61.30
2022-08-05T16:54:23.968Z,61.20
2022-08-05T16:56:55.555Z,61.50
2022-08-05T16:59:22.789Z,62.00
2022-08-05T17:01:54.431Z,62.20
2022-08-05T17:04:26.090Z,62.10
2022-08-05T17:06:55.291Z,62.20
2022-08-05T17:09:23.097Z,62.50
2022-08-05T17:11:56.067Z,62.90
2022-08-05T17:14:37.177Z,62.90
2022-08-05T17:17:06.722Z,63.30
2022-08-05T17:19:43.715Z,63.40
2022-08-05T17:30:52.559Z,63.30
2022-08-05T17:33:20.136Z,63.50
2022-08-05T17:36:07.632Z,63.90
2022-08-05T17:38:34.011Z,64.30
2022-08-05T17:41:01.749Z,64.30
2022-08-05T17:43:50.299Z,64.50
2022-08-05T17:46:15.554Z,64.60
2022-08-05T17:48:45.112Z,65.20
2022-08-05T17:51:14.666Z,65.50
2022-08-05T17:53:54.580Z,65.80
2022-08-05T17:56:22.595Z,66.20
2022-08-05T17:58:49.899Z,66.50
2022-08-05T18:01:18.227Z,66.70
2022-08-05T18:03:58.551Z,67.00
2022-08-05T18:06:31.115Z,67.20
2022-08-05T18:08:58.346Z,67.60
2022-08-05T18:11:33.126Z,67.40
2022-08-05T18:14:07.338Z,67.70
2022-08-05T18:16:50.919Z,68.90
2022-08-05T18:19:18.659Z,70.00
2022-08-05T18:22:09.033Z,71.10
2022-08-05T18:24:37.833Z,71.70
2022-08-05T18:27:12.393Z,72.70
2022-08-05T18:29:51.941Z,73.40
2022-08-05T18:32:21.220Z,74.40
2022-08-05T18:34:55.367Z,74.00
2022-08-05T18:37:34.639Z,74.50
2022-08-05T18:40:34.365Z,74.50
2022-08-05T18:42:55.098Z,74.50
2022-08-05T18:45:22.126Z,74.90
2022-08-05T18:47:56.623Z,75.00
2022-08-05T18:50:46.447Z,74.90
2022-08-05T18:53:24.529Z,75.20
2022-08-05T18:55:52.019Z,75.20
2022-08-05T18:58:18.762Z,75.70
2022-08-05T19:00:54.240Z,75.90
2022-08-05T19:03:52.730Z,76.10
2022-08-05T19:06:18.771Z,76.30
2022-08-05T19:08:49.356Z,76.60
2022-08-05T19:11:16.080Z,76.80
2022-08-05T19:14:01.050Z,76.70
2022-08-05T19:16:35.309Z,76.90
2022-08-05T19:19:13.627Z,77.20
2022-08-05T19:21:40.697Z,77.30
2022-08-05T19:24:13.022Z,77.20
2022-08-05T19:26:55.008Z,77.50
2022-08-05T19:29:23.739Z,77.60
2022-08-05T19:31:54.525Z,77.90
2022-08-05T19:34:24.790Z,77.80
2022-08-05T19:36:51.587Z,77.70
2022-08-05T19:39:18.797Z,78.00
2022-08-05T19:42:07.132Z,77.50
2022-08-05T19:44:44.543Z,77.50
2022-08-05T19:47:15.225Z,77.80
2022-08-05T19:49:44.341Z,78.00
2022-08-05T19:52:31.043Z,77.90
2022-08-05T19:55:00.627Z,78.30
2022-08-05T19:57:52.085Z,78.10
2022-08-05T20:00:20.987Z,78.10
2022-08-05T20:02:47.865Z,78.60
2022-08-05T20:05:16.698Z,78.60
2022-08-05T20:07:55.042Z,78.50
2022-08-05T20:10:25.029Z,78.50
2022-08-05T20:12:52.194Z,78.80
2022-08-05T20:15:48.851Z,79.00
2022-08-05T20:18:10.430Z,79.30
2022-08-05T20:20:56.615Z,79.50
2022-08-05T20:23:40.080Z,80.40
2022-08-05T20:26:15.924Z,80.20
2022-08-05T20:28:51.308Z,80.00
2022-08-05T20:31:28.409Z,80.50
2022-08-05T20:34:08.495Z,80.20
2022-08-05T20:36:35.456Z,79.90
2022-08-05T20:39:05.865Z,79.90
2022-08-05T20:41:42.999Z,79.80
2022-08-05T20:44:19.037Z,79.80
2022-08-05T20:47:01.528Z,80.40
2022-08-05T20:49:29.858Z,79.50
2022-08-05T20:52:05.029Z,78.40
2022-08-05T20:54:42.725Z,77.10
2022-08-05T20:57:10.784Z,76.50
2022-08-05T21:00:10.336Z,74.80
2022-08-05T21:02:28.185Z,74.60
2022-08-05T21:04:55.457Z,73.70
2022-08-05T21:07:24.370Z,72.60
2022-08-05T21:09:53.819Z,71.70
2022-08-05T21:12:21.554Z,71.70
2022-08-05T21:14:53.027Z,71.50
2022-08-05T21:17:21.952Z,70.60
2022-08-05T21:19:51.991Z,70.40
2022-08-05T21:22:23.012Z,69.90
2022-08-05T21:24:52.405Z,69.80
2022-08-05T21:27:27.250Z,69.60
2022-08-05T21:29:58.178Z,69.00
2022-08-05T21:32:29.189Z,70.40
2022-08-05T21:35:08.576Z,69.40
2022-08-05T21:37:52.635Z,69.20
2022-08-05T21:40:22.246Z,69.50
2022-08-05T21:42:52.090Z,69.70
2022-08-05T21:45:38.141Z,69.70
2022-08-05T21:48:08.261Z,69.90
2022-08-05T21:50:37.282Z,70.70
2022-08-05T21:53:16.705Z,71.10
2022-08-05T21:56:04.814Z,71.10
2022-08-05T21:58:32.215Z,71.80
2022-08-05T22:00:59.717Z,72.60
2022-08-05T22:03:51.941Z,72.80
2022-08-05T22:06:15.887Z,73.50
2022-08-05T22:08:50.549Z,73.80
2022-08-05T22:11:19.894Z,74.40
2022-08-05T22:14:31.359Z,75.20
2022-08-05T22:16:55.948Z,75.80
2022-08-05T22:20:01.700Z,76.30
2022-08-05T22:22:11.611Z,76.60
2022-08-05T22:24:57.751Z,76.80
2022-08-05T22:28:10.496Z,76.90
2022-08-05T22:30:32.151Z,77.20
2022-08-05T22:33:02.298Z,77.60
2022-08-05T22:35:31.126Z,77.80
2022-08-05T22:38:15.775Z,77.90
2022-08-05T22:40:49.998Z,77.10
2022-08-05T22:43:36.174Z,76.00
2022-08-05T22:46:12.222Z,76.10
2022-08-05T22:48:41.042Z,75.70
2022-08-05T22:51:08.245Z,75.20
2022-08-05T22:53:42.990Z,74.50
2022-08-05T22:56:17.064Z,73.10
2022-08-05T22:58:43.997Z,72.70
2022-08-05T23:01:10.805Z,72.20
2022-08-05T23:03:58.249Z,72.20
2022-08-05T23:06:26.603Z,72.00
2022-08-05T23:08:55.510Z,70.40
2022-08-05T23:11:42.214Z,70.40
2022-08-05T23:14:13.409Z,72.10
2022-08-05T23:16:58.931Z,71.40
2022-08-05T23:19:26.537Z,69.70
2022-08-05T23:21:53.267Z,69.40
2022-08-05T23:24:21.214Z,69.30
2022-08-05T23:26:49.205Z,69.00
2022-08-05T23:29:16.596Z,70.60
2022-08-05T23:31:46.157Z,70.00
2022-08-05T23:34:16.200Z,69.80
2022-08-05T23:36:52.948Z,70.50
2022-08-05T23:39:31.960Z,70.40
2022-08-05T23:42:14.256Z,70.60
2022-08-05T23:44:42.602Z,70.70
2022-08-05T23:47:15.639Z,70.00
2022-08-05T23:49:46.214Z,70.70
2022-08-05T23:52:50.091Z,70.50
2022-08-05T23:55:19.026Z,70.90
2022-08-05T23:57:48.975Z,71.00
